• Join FlightAware (Why Join?)
  • Login
  • US Flag 
07:17AM EDT


 

Airport Tracker/Info


-or-


 

Live Flight TrackerFlight Track Log ✈ UAL4476 ✈ 12-May-2013 ✈ KCLE - KBOS

Flight Track Log - Related Links

Times and Time Zones

All times are in EDT time to prevent confusion due to time zone crossing. See the UAL4476 flight status page for this flight to view local times or setup timezone preferences in your user account.

Time Position Orientation Groundspeed Altitude Reporting Facility
EDT Latitude Longitude Course Direction KTS MPH feet Rate Location/Type
08:51AM 41.3897 -81.8922 269° West 173 199 2,100  Level Cleveland Center
08:51AM 41.3894 -81.9172 269° West 180 207 2,900 2,400 Climbing Cleveland Center
08:52AM 41.4222 -81.9650 312° West 226 260 5,500 2,220 Climbing Cleveland Center
08:53AM 41.4856 -81.8858 43° Northeast 227 261 8,000 2,280 Climbing Cleveland Center
08:54AM 41.5406 -81.8094 46° Northeast 260 299 10,700 2,040 Climbing Cleveland Center
08:55AM 41.5978 -81.7300 46° Northeast 283 326 12,100 1,200 Climbing Cleveland Center
08:56AM 41.6653 -81.6422 44° Northeast 314 361 13,200 1,080 Climbing Cleveland Center
08:57AM 41.7392 -81.5486 43° Northeast 349 402 14,300 960 Climbing Cleveland Center
08:58AM 41.8064 -81.4606 44° Northeast 367 422 15,200 960 Climbing Cleveland Center
08:59AM 41.8533 -81.3247 65° Northeast 388 447 16,300 1,080 Climbing Cleveland Center
09:00AM 41.8772 -81.1744 78° East 401 461 17,400 1,080 Climbing Cleveland Center
09:01AM 41.9028 -81.0156 78° East 423 487 18,500 1,080 Climbing Cleveland Center
09:02AM 41.9283 -80.8567 78° East 435 501 19,600 1,020 Climbing Cleveland Center
09:03AM 41.9578 -80.6753 78° East 441 507 20,600 960 Climbing Cleveland Center
09:04AM 41.9828 -80.5022 79° East 456 525 21,600 960 Climbing Cleveland Center
09:05AM 42.0097 -80.3289 78° East 471 542 22,600 960 Climbing Cleveland Center
09:06AM 42.0383 -80.1525 78° East 476 548 23,600 900 Climbing Cleveland Center
09:07AM 42.0586 -80.0128 79° East 481 554 24,400 900 Climbing Cleveland Center
09:08AM 42.0889 -79.8194 78° East 476 548 25,400 1,080 Climbing Cleveland Center
09:09AM 42.1164 -79.6258 79° East 476 548 26,600 1,020 Climbing Cleveland Center
09:10AM 42.1400 -79.4519 80° East 476 548 27,500 900 Climbing Cleveland Center
09:11AM 42.1653 -79.2806 79° East 470 541 28,500 720 Climbing Cleveland Center
09:12AM 42.1903 -79.1092 79° East 470 541 29,000 540 Climbing Cleveland Center
09:13AM 42.2108 -78.9347 81° East 470 541 29,600 660 Climbing Cleveland Center
09:14AM 42.2336 -78.7772 79° East 470 541 30,400 900 Climbing Cleveland Center
09:15AM 42.2578 -78.6025 79° East 470 541 31,400 780 Climbing Cleveland Center
09:16AM 42.2775 -78.4250 81° East 470 541 32,000 600 Climbing Cleveland Center
09:17AM 42.2989 -78.2447 81° East 470 541 32,600 780 Climbing Cleveland Center
09:18AM 42.3222 -78.0614 80° East 481 554 33,600 900 Climbing Cleveland Center
09:19AM 42.3411 -77.8836 82° East 486 559 34,500 660 Climbing Cleveland Center
09:20AM 42.3675 -77.6800 80° East 486 559 35,000 120 Climbing Cleveland Center
09:23AM 42.4125 -77.2667 81° East 506 582 35,000  Level Boston Center
09:24AM 42.4347 -77.0797 81° East 506 582 35,000  Level Boston Center
09:25AM 42.4547 -76.8925 82° East 506 582 35,000  Level Boston Center
09:26AM 42.4744 -76.7053 82° East 500 575 35,000  Level Boston Center
09:27AM 42.4956 -76.5264 81° East 495 570 35,000  Level Boston Center
09:28AM 42.5128 -76.3389 83° East 495 570 35,000  Level Boston Center
09:29AM 42.5314 -76.1567 82° East 490 564 35,000  Level Boston Center
09:30AM 42.5519 -75.9719 81° East 490 564 35,000  Level Boston Center
09:31AM 42.5658 -75.7894 84° East 490 564 35,000  Level Boston Center
09:32AM 42.5669 -75.6033 89° East 490 564 35,000  Level Boston Center
09:33AM 42.5675 -75.4258 90° East 484 557 35,000  Level Boston Center
09:34AM 42.5703 -75.2369 89° East 489 563 35,000  Level Boston Center
09:35AM 42.5725 -75.0536 89° East 489 563 35,000  Level Boston Center
09:36AM 42.5725 -74.8706 90° East 483 556 35,000  Level Boston Center
09:37AM 42.5719 -74.6956 90° East 473 544 35,000 -60 Level Boston Center
09:38AM 42.5733 -74.5122 89° East 473 544 34,900  Descending Boston Center
09:39AM 42.5744 -74.3178 89° East 473 544 35,000 -480 Climbing Boston Center
09:40AM 42.5733 -74.1372 90° East 473 544 34,000 -1,260 Descending Boston Center
09:41AM 42.5714 -73.9625 91° East 473 544 32,500 -1,320 Descending Boston Center
09:42AM 42.5711 -73.8272 90° East 468 539 31,400 -1,440 Descending Boston Center
09:43AM 42.5714 -73.6158 90° East 463 533 29,700 -1,500 Descending Boston Center
09:44AM 42.5689 -73.4381 91° East 463 533 28,400 -1,200 Descending Boston Center
09:45AM 42.5683 -73.2689 90° East 477 549 27,300 -1,200 Descending Boston Center
09:46AM 42.5653 -73.0856 91° East 477 549 26,000 -1,260 Descending Boston Center
09:47AM 42.5619 -72.9025 91° East 482 555 24,800 -1,200 Descending Boston Center
09:48AM 42.5583 -72.7164 91° East 482 555 23,700 -1,140 Descending Boston Center
09:49AM 42.5547 -72.5386 92° East 482 555 22,600 -1,200 Descending Boston Center
09:50AM 42.5525 -72.3669 91° East 462 532 21,400 -1,800 Descending Boston Center
09:51AM 42.5481 -72.2006 92° East 431 496 19,000 -2,460 Descending Boston Center
09:52AM 42.5436 -72.0625 92° East 404 465 16,500 -2,460 Descending Boston Center
09:53AM 42.5306 -71.9133 97° East 377 434 14,100 -2,100 Descending Boston Center
09:54AM 42.5194 -71.7894 97° East 372 428 12,300 -1,500 Descending Boston Center
09:55AM 42.5081 -71.6458 96° East 356 410 11,100 -960 Descending Boston Center
09:56AM 42.5000 -71.5333 96° East 347 399 10,600 -720 Descending KA90
09:57AM 42.4833 -71.4167 101° East 312 359 9,800 -960 Descending KA90
09:58AM 42.4833 -71.3000 90° East 305 351 8,700 -1,320 Descending KA90
09:59AM 42.4667 -71.2000 103° East 297 342 7,300 -1,380 Descending KA90
09:59AM 42.4833 -71.1000 77° East 269 310 6,200 -720 Descending KA90
10:00AM 42.5333 -71.0500 36° Northeast 256 295 6,000 -120 Descending KA90
10:01AM 42.6000 -71.0000 29° Northeast 256 295 6,000 -540 Level KA90
10:02AM 42.6500 -70.9667 26° Northeast 240 276 5,000 -840 Descending KA90
10:03AM 42.6742 -70.9661 North 234 269 5,000 -360 Level Boston Center
10:04AM 42.7172 -70.9142 42° Northeast 218 251 4,600 -540 Descending Boston Center
10:05AM 42.6917 -70.8583 122° Southeast 153 176 4,000 -840 Descending Boston Center
10:06AM 42.6419 -70.8764 195° South 120 138 3,000 -660 Descending Boston Center
10:06AM 42.6167 -70.8833 191° South 176 203 3,000  Level KA90
10:07AM 42.5667 -70.9000 194° South 187 215 3,000 -60 Level KA90
10:08AM 42.5167 -70.9333 206° Southwest 188 216 2,900 -540 Descending KA90
10:09AM 42.4667 -70.9500 194° South 174 200 1,900 -900 Descending KA90
10:10AM 42.4333 -70.9667 200° South 148 170 1,100 -840 Descending KA90